Time;durP1;ratioP1;P1;durP2;ratioP2;P2;SDS_P1;SDS_P2;PMS_P1;PMS_P2;Temp;Humidity;BMP_temperature;BMP_pressure;BME280_temperature;BME280_humidity;BME280_pressure;Samples;Min_cycle;Max_cycle;Signal;HPM_P1;HPM_P2
2023/08/07 00:01:29;;;;;;;2.40;1.90;;;;;;;19.90;100.00;96760.38;5015677;28;20349;-71
2023/08/07 00:03:55;;;;;;;2.08;1.83;;;;;;;19.91;100.00;96753.94;5031987;28;20029;-71
2023/08/07 00:06:20;;;;;;;3.03;2.00;;;;;;;20.01;100.00;96745.63;5031970;28;20441;-71
2023/08/07 00:08:46;;;;;;;2.30;2.10;;;;;;;19.96;100.00;96740.69;5032280;28;20174;-71
2023/08/07 00:11:11;;;;;;;2.33;2.13;;;;;;;19.94;100.00;96753.59;5046487;28;20052;-71
2023/08/07 00:13:37;;;;;;;2.28;2.08;;;;;;;19.95;100.00;96760.72;5069741;28;20032;-73
2023/08/07 00:16:03;;;;;;;2.22;2.03;;;;;;;19.91;100.00;96767.50;5049365;28;20116;-72
2023/08/07 00:18:29;;;;;;;2.90;2.60;;;;;;;19.87;100.00;96760.72;5037850;28;20036;-73
2023/08/07 00:20:54;;;;;;;2.65;1.95;;;;;;;19.86;100.00;96761.75;5039248;28;20111;-72
2023/08/07 00:23:20;;;;;;;2.20;2.00;;;;;;;19.82;100.00;96768.53;5055925;28;20032;-73
2023/08/07 00:25:45;;;;;;;2.22;2.03;;;;;;;19.86;100.00;96782.63;5069610;28;20029;-72
2023/08/07 00:28:11;;;;;;;2.25;2.05;;;;;;;19.77;100.00;96781.78;5044035;28;20028;-72
2023/08/07 00:30:36;;;;;;;2.75;2.30;;;;;;;19.78;100.00;96774.50;5039105;28;20040;-72
2023/08/07 00:33:02;;;;;;;3.63;2.83;;;;;;;19.77;100.00;96778.22;5039298;28;20031;-73
2023/08/07 00:35:28;;;;;;;3.45;2.40;;;;;;;19.75;100.00;96775.66;5055986;28;20485;-73
2023/08/07 00:37:53;;;;;;;2.78;2.33;;;;;;;19.74;100.00;96765.84;5073631;28;20515;-73
2023/08/07 00:40:19;;;;;;;2.55;2.35;;;;;;;19.71;100.00;96778.91;5073696;28;20036;-73
2023/08/07 00:42:44;;;;;;;4.38;2.10;;;;;;;19.71;100.00;96766.19;5056288;28;20025;-73
2023/08/07 00:45:10;;;;;;;3.25;2.50;;;;;;;19.87;100.00;96770.75;5053861;28;20021;-73
2023/08/07 00:47:37;;;;;;;3.80;2.55;;;;;;;19.78;100.00;96778.03;5055392;28;20138;-73
2023/08/07 00:50:04;;;;;;;2.50;2.30;;;;;;;19.83;100.00;96777.53;5073609;28;20364;-72
2023/08/07 00:52:29;;;;;;;3.90;2.10;;;;;;;19.78;100.00;96786.19;5038702;28;20389;-73
2023/08/07 00:54:55;;;;;;;2.70;2.30;;;;;;;19.81;100.00;96793.97;5050900;28;20095;-72
2023/08/07 00:57:22;;;;;;;2.80;2.60;;;;;;;19.82;100.00;96795.69;5035551;28;20112;-73
2023/08/07 00:59:48;;;;;;;2.60;2.40;;;;;;;19.77;100.00;96791.78;5024154;28;20553;-73
2023/08/07 01:02:14;;;;;;;2.67;2.45;;;;;;;19.74;100.00;96790.28;5038800;28;20028;-73
2023/08/07 01:04:40;;;;;;;3.22;2.20;;;;;;;19.74;100.00;96784.84;5049513;28;20047;-73
2023/08/07 01:07:06;;;;;;;4.03;2.08;;;;;;;19.82;100.00;96784.84;5055417;28;20032;-73
2023/08/07 01:09:32;;;;;;;2.40;2.20;;;;;;;19.80;100.00;96791.44;5055316;28;20042;-73
2023/08/07 01:12:19;;;;;;;2.97;2.67;;;;;;;19.79;100.00;96795.19;5042527;28;20021;-73
2023/08/07 01:14:49;;;;;;;2.55;2.35;;;;;;;19.73;100.00;96794.00;5035310;28;20029;-73
2023/08/07 01:17:17;;;;;;;3.25;2.95;;;;;;;19.68;100.00;96800.97;5035234;28;20488;-73
2023/08/07 01:19:42;;;;;;;5.25;2.67;;;;;;;19.61;100.00;96811.63;5052864;28;20366;-73
2023/08/07 01:22:18;;;;;;;3.30;2.78;;;;;;;19.56;100.00;96808.59;5050069;28;20101;-73
2023/08/07 01:24:46;;;;;;;3.95;3.00;;;;;;;19.56;100.00;96813.16;5043180;28;20021;-73
2023/08/07 01:27:17;;;;;;;3.95;2.65;;;;;;;19.56;100.00;96824.88;5052884;28;20082;-73
2023/08/07 01:29:57;;;;;;;2.25;2.05;;;;;;;19.52;100.00;96820.78;5052512;28;20443;-73
2023/08/07 01:32:48;;;;;;;3.22;2.40;;;;;;;19.64;100.00;96818.59;5034937;28;20037;-73
2023/08/07 01:35:15;;;;;;;3.22;2.00;;;;;;;19.64;100.00;96827.59;5034822;28;20083;-73
2023/08/07 01:37:43;;;;;;;2.60;2.40;;;;;;;19.58;100.00;96824.69;5040150;28;21273;-73
2023/08/07 01:40:10;;;;;;;2.20;1.85;;;;;;;19.56;100.00;96821.31;5055016;28;20111;-73
2023/08/07 01:42:36;;;;;;;2.63;2.42;;;;;;;19.62;100.00;96837.75;5054274;28;20098;-73
2023/08/07 01:45:02;;;;;;;2.47;2.28;;;;;;;19.56;100.00;96841.16;5054880;28;20365;-73
2023/08/07 01:47:28;;;;;;;2.05;1.85;;;;;;;19.56;100.00;96838.44;5056641;28;20040;-72
2023/08/07 01:49:53;;;;;;;2.58;2.25;;;;;;;19.52;100.00;96847.91;5054356;28;20027;-73
2023/08/07 01:52:20;;;;;;;2.10;1.90;;;;;;;19.55;100.00;96839.44;5054587;28;20107;-73
2023/08/07 01:54:46;;;;;;;3.97;2.40;;;;;;;19.56;100.00;96841.16;5054199;28;20024;-73
2023/08/07 01:57:11;;;;;;;4.68;2.47;;;;;;;19.51;100.00;96840.78;5054159;28;20081;-73
2023/08/07 01:59:37;;;;;;;2.85;2.55;;;;;;;19.47;100.00;96834.03;5054270;28;20352;-73
2023/08/07 02:02:03;;;;;;;2.75;2.45;;;;;;;19.38;100.00;96813.28;5054484;28;20028;-73
2023/08/07 02:04:28;;;;;;;3.35;2.30;;;;;;;19.41;100.00;96821.94;5054410;28;20074;-73
2023/08/07 02:06:54;;;;;;;3.05;2.35;;;;;;;19.39;100.00;96828.53;5071755;28;20024;-73
2023/08/07 02:09:20;;;;;;;2.70;2.50;;;;;;;19.34;100.00;96836.31;5037411;28;20020;-74
2023/08/07 02:11:46;;;;;;;1.92;1.73;;;;;;;19.32;100.00;96827.50;5071463;28;20044;-72
2023/08/07 02:14:11;;;;;;;2.30;2.10;;;;;;;19.27;100.00;96819.00;5072142;28;20032;-73
2023/08/07 02:16:37;;;;;;;2.85;2.13;;;;;;;19.31;100.00;96833.94;5053898;28;20579;-72
2023/08/07 02:19:02;;;;;;;2.42;2.22;;;;;;;19.31;100.00;96837.50;5053928;28;20025;-73
2023/08/07 02:21:28;;;;;;;2.17;1.98;;;;;;;19.29;100.00;96846.81;5071849;28;20173;-73
2023/08/07 02:23:53;;;;;;;2.80;2.15;;;;;;;19.28;100.00;96847.84;5071852;28;20024;-74
2023/08/07 02:26:19;;;;;;;2.35;2.15;;;;;;;19.26;100.00;96860.69;5071746;28;20029;-74
2023/08/07 02:28:44;;;;;;;2.42;2.10;;;;;;;19.23;100.00;96856.47;5053833;28;20046;-74
2023/08/07 02:31:10;;;;;;;2.63;2.42;;;;;;;19.23;100.00;96861.88;5072697;28;20043;-74
2023/08/07 02:33:35;;;;;;;2.25;2.05;;;;;;;19.22;100.00;96862.06;5053772;28;20036;-74
2023/08/07 02:36:01;;;;;;;2.90;2.50;;;;;;;19.18;100.00;96863.41;5071430;28;20384;-74
2023/08/07 02:38:26;;;;;;;2.50;2.30;;;;;;;19.18;100.00;96860.69;5071405;28;20124;-72
2023/08/07 02:40:52;;;;;;;2.30;2.10;;;;;;;19.15;100.00;96859.16;5070593;28;20472;-72
2023/08/07 02:43:17;;;;;;;2.40;1.80;;;;;;;19.18;100.00;96863.41;5053382;28;20024;-72
2023/08/07 02:45:43;;;;;;;2.50;2.30;;;;;;;19.18;100.00;96864.25;5071243;28;20028;-74
2023/08/07 02:48:08;;;;;;;2.45;2.08;;;;;;;19.14;100.00;96862.03;5072920;28;20099;-73
2023/08/07 02:50:35;;;;;;;3.20;2.28;;;;;;;19.14;100.00;96867.44;5076012;28;20483;-73
2023/08/07 02:53:01;;;;;;;2.25;2.00;;;;;;;19.14;100.00;96872.88;5053119;28;20500;-73
2023/08/07 02:55:27;;;;;;;6.35;2.20;;;;;;;19.06;100.00;96867.44;5053212;28;20028;-73
2023/08/07 02:57:52;;;;;;;2.45;2.25;;;;;;;19.09;100.00;96886.06;5052934;28;20043;-73
2023/08/07 03:00:18;;;;;;;5.88;2.72;;;;;;;19.04;100.00;96880.31;5052916;28;20028;-73
2023/08/07 03:02:44;;;;;;;2.80;2.08;;;;;;;19.03;100.00;96887.59;5053002;28;20042;-73
2023/08/07 03:05:09;;;;;;;2.90;2.10;;;;;;;19.02;100.00;96876.88;5053113;28;20456;-73
2023/08/07 03:07:35;;;;;;;2.63;2.17;;;;;;;19.13;100.00;96876.63;5054105;28;20127;-73
2023/08/07 03:10:00;;;;;;;2.20;2.00;;;;;;;19.11;100.00;96889.47;5052577;28;20032;-74
2023/08/07 03:12:26;;;;;;;3.10;2.22;;;;;;;19.16;100.00;96892.56;5053525;28;20459;-73
2023/08/07 03:14:52;;;;;;;2.50;2.30;;;;;;;19.15;100.00;96891.69;5070799;28;20040;-74
2023/08/07 03:17:17;;;;;;;2.33;2.13;;;;;;;19.16;100.00;96890.69;5052852;28;20028;-73
2023/08/07 03:19:43;;;;;;;5.10;3.00;;;;;;;19.12;100.00;96902.00;5053149;28;20036;-73
2023/08/07 03:22:09;;;;;;;3.45;2.28;;;;;;;18.98;100.00;96910.78;5070903;28;20035;-73
2023/08/07 03:24:35;;;;;;;7.97;2.45;;;;;;;18.82;100.00;96912.41;5073239;28;20024;-73
2023/08/07 03:27:00;;;;;;;4.35;2.63;;;;;;;18.69;100.00;96909.28;5052506;28;20032;-73
2023/08/07 03:29:26;;;;;;;3.10;2.63;;;;;;;18.55;100.00;96904.44;5070898;28;20104;-73
2023/08/07 03:31:52;;;;;;;11.95;3.45;;;;;;;18.53;100.00;96901.03;5036213;28;20476;-73
2023/08/07 03:34:17;;;;;;;8.45;3.17;;;;;;;18.52;100.00;96904.75;5052135;28;20028;-73
2023/08/07 03:36:43;;;;;;;3.67;2.80;;;;;;;18.46;100.00;96910.78;5070853;28;20024;-73
2023/08/07 03:39:10;;;;;;;8.02;3.78;;;;;;;18.34;100.00;96912.03;5051869;28;20357;-73
2023/08/07 03:41:35;;;;;;;7.18;4.20;;;;;;;18.45;100.00;96919.06;5076259;28;20032;-72
2023/08/07 03:44:01;;;;;;;9.25;3.40;;;;;;;18.31;100.00;96923.19;5070294;28;20031;-73
2023/08/07 03:46:26;;;;;;;12.68;5.28;;;;;;;18.26;100.00;96922.84;5052714;28;20476;-72
2023/08/07 03:48:52;;;;;;;20.45;5.30;;;;;;;18.24;100.00;96917.56;5052716;28;20098;-73
2023/08/07 03:51:17;;;;;;;24.15;6.68;;;;;;;18.23;100.00;96926.72;5071583;28;20055;-73
2023/08/07 03:53:43;;;;;;;18.23;6.30;;;;;;;18.24;100.00;96932.97;5069829;28;20035;-73
2023/08/07 03:56:09;;;;;;;15.38;4.72;;;;;;;18.19;100.00;96933.44;5052186;28;20025;-73
2023/08/07 03:58:34;;;;;;;15.52;4.93;;;;;;;18.26;100.00;96933.66;5070034;28;20403;-73
2023/08/07 04:01:00;;;;;;;10.40;3.65;;;;;;;18.28;100.00;96934.34;5068917;28;20056;-73
2023/08/07 04:03:25;;;;;;;3.10;2.58;;;;;;;18.32;100.00;96933.03;5055509;28;20052;-73
2023/08/07 04:05:52;;;;;;;4.63;2.40;;;;;;;18.28;100.00;96937.91;5052219;28;20024;-73
2023/08/07 04:08:17;;;;;;;19.98;4.43;;;;;;;18.35;100.00;96943.53;5051864;28;20128;-73
2023/08/07 04:10:43;;;;;;;12.25;3.00;;;;;;;18.52;100.00;96948.09;5070009;28;20024;-73
2023/08/07 04:13:08;;;;;;;6.53;3.03;;;;;;;18.52;100.00;96939.13;5070112;28;20028;-73
2023/08/07 04:15:34;;;;;;;5.80;3.15;;;;;;;18.64;100.00;96944.09;5070040;28;20521;-75
2023/08/07 04:17:59;;;;;;;32.05;4.05;;;;;;;18.76;100.00;96955.56;5076275;28;20086;-73
2023/08/07 04:20:25;;;;;;;8.95;3.05;;;;;;;18.67;100.00;96957.34;5069910;28;20029;-72
2023/08/07 04:22:50;;;;;;;7.60;2.92;;;;;;;18.83;100.00;96952.03;5052196;28;20027;-72
2023/08/07 04:25:16;;;;;;;5.85;3.20;;;;;;;19.36;100.00;96948.22;5051492;28;20021;-72
2023/08/07 04:27:41;;;;;;;21.17;5.82;;;;;;;19.43;100.00;96960.16;5051200;28;20063;-71
2023/08/07 04:30:07;;;;;;;46.88;13.15;;;;;;;19.50;100.00;96955.78;5051862;28;20057;-72
2023/08/07 04:32:33;;;;;;;15.00;7.18;;;;;;;19.79;100.00;96950.75;5069898;28;20070;-71
2023/08/07 04:34:59;;;;;;;20.67;5.25;;;;;;;19.55;100.00;96958.81;5070002;28;20029;-72
2023/08/07 04:37:24;;;;;;;12.68;4.03;;;;;;;19.44;100.00;96946.41;5069541;28;20020;-72
2023/08/07 04:39:50;;;;;;;34.00;4.53;;;;;;;19.28;100.00;96940.06;5070126;28;20028;-73
2023/08/07 04:42:15;;;;;;;17.73;3.88;;;;;;;19.26;100.00;96958.31;5051976;28;20036;-72
2023/08/07 04:44:41;;;;;;;9.05;4.10;;;;;;;19.28;100.00;96962.59;5068535;28;20472;-72
2023/08/07 04:47:06;;;;;;;24.25;5.00;;;;;;;19.28;100.00;96957.19;5051660;28;20078;-71
2023/08/07 04:49:32;;;;;;;42.65;10.20;;;;;;;19.33;100.00;96952.09;5085147;28;20427;-72
2023/08/07 04:51:57;;;;;;;40.67;14.52;;;;;;;19.31;100.00;96945.16;5051875;28;20119;-71
2023/08/07 04:54:23;;;;;;;27.55;8.95;;;;;;;19.47;100.00;96950.66;5069386;28;20142;-72
2023/08/07 04:56:48;;;;;;;25.10;10.05;;;;;;;19.53;100.00;96951.88;5051883;28;20051;-72
2023/08/07 04:59:14;;;;;;;47.00;15.27;;;;;;;19.66;100.00;96955.78;5069836;28;20032;-71
2023/08/07 05:01:39;;;;;;;17.58;8.85;;;;;;;19.63;100.00;96950.69;5051545;28;20056;-71
2023/08/07 05:04:05;;;;;;;14.13;4.72;;;;;;;19.80;100.00;96963.31;5071267;28;20033;-72
2023/08/07 05:06:31;;;;;;;18.80;3.60;;;;;;;19.88;100.00;96963.31;5055065;28;20032;-72
2023/08/07 05:08:56;;;;;;;4.78;2.85;;;;;;;19.97;100.00;96964.16;5073082;28;20119;-72
2023/08/07 05:11:22;;;;;;;22.20;5.32;;;;;;;20.03;100.00;96969.78;5055023;28;20036;-72
2023/08/07 05:13:48;;;;;;;10.63;3.70;;;;;;;20.08;100.00;96965.72;5073128;28;20032;-72
2023/08/07 05:16:13;;;;;;;21.70;7.38;;;;;;;20.16;100.00;96968.44;5071975;28;20456;-74
2023/08/07 05:18:39;;;;;;;79.03;37.15;;;;;;;20.29;100.00;96968.81;5088558;28;20393;-71
2023/08/07 05:21:07;;;;;;;104.88;62.85;;;;;;;20.35;100.00;96965.44;5071243;28;20333;-72
2023/08/07 05:23:32;;;;;;;6.25;3.63;;;;;;;20.39;100.00;96967.66;5072771;28;20077;-71
2023/08/07 05:25:57;;;;;;;4.18;2.85;;;;;;;20.42;100.00;96958.31;5069452;28;20059;-72
2023/08/07 05:28:23;;;;;;;5.40;2.42;;;;;;;20.57;100.00;96963.91;5069812;28;20405;-71
2023/08/07 05:30:48;;;;;;;2.70;2.00;;;;;;;20.53;100.00;96949.78;5070037;28;20024;-75
2023/08/07 05:33:15;;;;;;;3.03;1.85;;;;;;;21.35;100.00;96945.91;5051981;28;20033;-74
2023/08/07 05:35:41;;;;;;;4.13;2.20;;;;;;;23.22;100.00;96939.66;5052401;28;20452;-75
2023/08/07 05:38:06;;;;;;;4.50;2.50;;;;;;;25.33;84.53;96926.28;5069761;28;20059;-75
2023/08/07 05:40:32;;;;;;;11.32;3.72;;;;;;;27.08;70.16;96917.00;5051533;28;20097;-74
2023/08/07 05:42:57;;;;;;;59.22;40.65;;;;;;;28.29;63.54;96903.28;5068710;28;20035;-74
2023/08/07 05:45:23;;;;;;;2.83;2.22;;;;;;;29.09;53.85;96901.59;5085373;28;20113;-74
2023/08/07 05:47:48;;;;;;;5.38;2.35;;;;;;;28.94;53.30;96892.84;5051941;28;20460;-75
2023/08/07 05:50:14;;;;;;;3.40;1.35;;;;;;;29.31;52.10;96893.75;5051653;28;20492;-75
2023/08/07 05:52:39;;;;;;;9.95;2.35;;;;;;;30.47;49.47;96883.34;5051432;28;20028;-76
2023/08/07 05:55:05;;;;;;;13.43;6.78;;;;;;;31.34;48.45;96885.28;5051978;28;20031;-75
2023/08/07 05:57:31;;;;;;;35.75;9.27;;;;;;;32.26;45.11;96883.38;5051837;28;20024;-75
2023/08/07 05:59:56;;;;;;;9.77;3.80;;;;;;;31.96;44.15;96874.44;5070323;28;20021;-81
2023/08/07 06:02:22;;;;;;;18.02;6.30;;;;;;;31.80;44.82;96880.75;5068739;28;20427;-75
2023/08/07 06:04:48;;;;;;;6.25;2.72;;;;;;;32.53;42.37;96880.81;5069957;28;20027;-81
2023/08/07 06:07:13;;;;;;;7.22;1.98;;;;;;;31.26;43.49;96880.09;5051324;28;20097;-73
2023/08/07 06:09:39;;;;;;;4.13;2.25;;;;;;;31.87;43.20;96887.00;5057518;28;20461;-78
2023/08/07 06:12:05;;;;;;;9.40;3.05;;;;;;;32.08;43.43;96891.88;5061814;28;20107;-78
2023/08/07 06:14:30;;;;;;;3.28;2.50;;;;;;;32.38;43.34;96888.84;5067547;28;20041;-77
2023/08/07 06:16:57;;;;;;;3.90;2.05;;;;;;;32.49;42.70;96899.88;5034305;28;20060;-76
2023/08/07 06:19:23;;;;;;;1.40;1.30;;;;;;;32.28;42.24;96895.03;5050925;28;20523;-75
2023/08/07 06:21:49;;;;;;;14.80;2.78;;;;;;;32.40;41.84;96890.28;5068949;28;20127;-75
2023/08/07 06:24:14;;;;;;;2.70;1.63;;;;;;;32.42;41.05;96890.91;5068678;28;20029;-75
2023/08/07 06:26:40;;;;;;;3.25;1.67;;;;;;;31.95;40.31;96889.38;5034410;28;20044;-75
2023/08/07 06:29:05;;;;;;;5.72;2.80;;;;;;;33.20;39.64;96896.44;5050410;28;20411;-75
2023/08/07 06:31:31;;;;;;;4.95;1.73;;;;;;;32.46;39.82;96900.38;5068894;28;20036;-76
2023/08/07 06:33:56;;;;;;;2.90;1.60;;;;;;;32.64;38.64;96902.94;5051021;28;20024;-74
2023/08/07 06:36:22;;;;;;;4.25;3.33;;;;;;;32.46;38.52;96894.81;5068735;28;20039;-74
2023/08/07 06:38:47;;;;;;;4.05;2.80;;;;;;;32.83;39.27;96908.25;5050598;28;20044;-75
2023/08/07 06:41:13;;;;;;;4.10;2.67;;;;;;;33.95;37.10;96890.31;5068581;28;20028;-75
2023/08/07 06:43:38;;;;;;;4.07;1.92;;;;;;;34.66;35.27;96885.59;5050665;28;20056;-75
2023/08/07 06:46:04;;;;;;;2.30;1.40;;;;;;;34.46;34.50;96886.19;5051041;28;20040;-76
2023/08/07 06:48:29;;;;;;;16.33;5.60;;;;;;;34.57;34.86;96896.31;5050138;28;20527;-75
2023/08/07 06:50:55;;;;;;;1.98;1.60;;;;;;;34.98;34.33;96897.53;5068585;28;20625;-76
2023/08/07 06:53:20;;;;;;;4.88;1.92;;;;;;;34.77;34.63;96893.75;5068213;28;20025;-76
2023/08/07 06:55:46;;;;;;;3.53;2.30;;;;;;;34.72;33.32;96885.38;5050620;28;20119;-75
2023/08/07 06:58:12;;;;;;;8.05;2.70;;;;;;;34.54;32.97;96882.94;5067351;28;20063;-77
2023/08/07 07:00:37;;;;;;;5.03;1.80;;;;;;;35.27;31.71;96873.88;5046179;28;20028;-75
2023/08/07 07:03:04;;;;;;;4.43;2.60;;;;;;;35.41;32.42;96881.78;5068163;28;20345;-74
2023/08/07 07:05:30;;;;;;;2.20;1.40;;;;;;;34.89;32.56;96896.34;5068508;28;20563;-75
2023/08/07 07:07:56;;;;;;;2.20;1.23;;;;;;;34.46;32.70;96888.97;5068090;28;20072;-76
2023/08/07 07:10:22;;;;;;;1.25;1.15;;;;;;;33.01;34.28;96894.97;5050123;28;20024;-72
2023/08/07 07:12:48;;;;;;;4.22;1.42;;;;;;;32.84;35.71;96893.31;5048609;28;20032;-72
2023/08/07 07:15:13;;;;;;;2.40;1.20;;;;;;;33.58;34.65;96895.63;5068416;28;20519;-72
2023/08/07 07:17:39;;;;;;;2.15;1.92;;;;;;;34.10;34.60;96890.53;5068153;28;20028;-71
2023/08/07 07:20:05;;;;;;;8.77;2.47;;;;;;;33.25;35.01;96902.03;5050223;28;20032;-71
2023/08/07 07:22:31;;;;;;;2.42;1.60;;;;;;;33.97;34.10;96901.13;5049932;28;20523;-71
2023/08/07 07:24:56;;;;;;;3.70;1.48;;;;;;;34.71;32.94;96892.03;5068130;28;20099;-70
2023/08/07 07:27:22;;;;;;;2.83;1.40;;;;;;;35.37;32.39;96900.94;5083203;28;20040;-71
2023/08/07 07:29:48;;;;;;;2.92;1.00;;;;;;;34.92;31.97;96898.59;5050198;28;20325;-72
2023/08/07 07:32:14;;;;;;;0.98;0.90;;;;;;;35.12;31.48;96897.97;5067997;28;20029;-72
2023/08/07 07:34:40;;;;;;;3.28;1.15;;;;;;;35.14;31.75;96904.09;5049898;28;20032;-71
2023/08/07 07:37:05;;;;;;;3.33;0.90;;;;;;;34.73;31.72;96900.94;5067667;28;20119;-72
2023/08/07 07:39:31;;;;;;;4.32;1.90;;;;;;;35.73;31.42;96904.81;5067781;28;20079;-71
2023/08/07 07:41:56;;;;;;;3.53;1.33;;;;;;;35.76;31.80;96899.53;5067791;28;20036;-71
2023/08/07 07:44:22;;;;;;;3.55;1.73;;;;;;;35.80;31.79;96899.84;5068064;28;20186;-71
2023/08/07 07:46:47;;;;;;;5.68;1.77;;;;;;;35.93;32.10;96898.50;5067866;28;20487;-71
2023/08/07 07:49:13;;;;;;;4.55;2.65;;;;;;;35.18;32.74;96899.69;5083087;28;20114;-71
2023/08/07 07:51:40;;;;;;;2.05;1.85;;;;;;;35.00;32.02;96894.50;5049848;28;20381;-71
2023/08/07 07:54:05;;;;;;;2.03;1.30;;;;;;;34.61;34.21;96905.81;5067593;28;20174;-71
2023/08/07 07:56:31;;;;;;;3.53;1.50;;;;;;;35.56;32.78;96906.91;5049880;28;20142;-71
2023/08/07 07:58:56;;;;;;;1.98;1.00;;;;;;;35.22;32.26;96907.25;5068024;28;20036;-71
2023/08/07 08:01:23;;;;;;;2.10;1.13;;;;;;;35.60;32.20;96905.28;5066183;28;20025;-72
2023/08/07 08:03:48;;;;;;;3.92;1.38;;;;;;;36.00;31.70;96904.66;5083075;28;20507;-72
2023/08/07 08:06:14;;;;;;;3.85;1.90;;;;;;;35.65;32.94;96914.53;5082727;28;20029;-71
2023/08/07 08:08:39;;;;;;;1.77;1.48;;;;;;;35.91;33.07;96912.69;5050089;28;20063;-72
2023/08/07 08:11:05;;;;;;;3.10;1.80;;;;;;;36.29;32.94;96908.72;5065534;28;20528;-72
2023/08/07 08:13:30;;;;;;;5.20;2.55;;;;;;;35.88;33.65;96902.09;5082726;28;20084;-70
2023/08/07 08:15:56;;;;;;;7.05;1.90;;;;;;;36.47;33.05;96905.41;5049841;28;20036;-70
2023/08/07 08:18:21;;;;;;;2.30;1.30;;;;;;;36.06;32.78;96909.16;5067705;28;20032;-71
2023/08/07 08:20:47;;;;;;;6.22;1.80;;;;;;;35.81;32.85;96910.69;5066117;28;20162;-71
2023/08/07 08:23:12;;;;;;;6.68;1.65;;;;;;;36.04;32.90;96900.22;5067511;28;20511;-70
2023/08/07 08:25:39;;;;;;;2.72;1.30;;;;;;;35.89;32.91;96901.00;5082905;28;20036;-71
2023/08/07 08:28:04;;;;;;;4.28;1.60;;;;;;;36.55;32.58;96913.25;5067227;28;20416;-72
2023/08/07 08:30:30;;;;;;;7.40;2.33;;;;;;;36.73;32.53;96898.78;5067552;28;20028;-71
2023/08/07 08:32:56;;;;;;;1.30;1.20;;;;;;;35.76;32.74;96904.25;5067663;28;20032;-70
2023/08/07 08:35:25;;;;;;;1.42;1.33;;;;;;;35.14;33.83;96904.09;5049188;28;20036;-71
2023/08/07 08:37:50;;;;;;;10.38;1.60;;;;;;;35.93;33.27;96899.34;5049791;28;20037;-71
2023/08/07 08:40:17;;;;;;;6.50;2.60;;;;;;;35.86;33.46;96899.59;5070832;28;20034;-71
2023/08/07 08:42:44;;;;;;;1.48;1.38;;;;;;;36.27;32.51;96905.38;5071512;28;20012;-71
2023/08/07 08:45:12;;;;;;;4.22;1.80;;;;;;;36.25;32.50;96902.84;5036581;28;20450;-71
2023/08/07 08:47:38;;;;;;;2.13;1.30;;;;;;;36.92;31.58;96901.88;5053184;28;20086;-71
2023/08/07 08:50:12;;;;;;;2.20;1.25;;;;;;;35.20;33.25;96898.31;5052904;28;20078;-71
2023/08/07 08:52:40;;;;;;;1.65;1.20;;;;;;;35.05;32.92;96898.16;5071183;28;20044;-71
2023/08/07 08:55:06;;;;;;;2.65;1.48;;;;;;;34.75;33.79;96893.19;5053441;28;20043;-71
2023/08/07 08:57:32;;;;;;;4.93;1.67;;;;;;;35.43;33.37;96891.53;5070826;28;20024;-72
2023/08/07 08:59:58;;;;;;;17.30;1.73;;;;;;;36.57;31.53;96876.75;5053117;28;20048;-71
2023/08/07 09:02:25;;;;;;;13.68;1.63;;;;;;;36.90;31.70;96887.38;5052527;28;20063;-71
2023/08/07 09:04:50;;;;;;;3.78;2.40;;;;;;;37.63;31.07;96873.94;5070957;28;20020;-71
2023/08/07 09:07:16;;;;;;;13.90;2.65;;;;;;;38.13;30.22;96872.97;5070608;28;20453;-70
2023/08/07 09:09:43;;;;;;;8.40;2.42;;;;;;;37.23;31.01;96877.63;5053185;28;20103;-72
2023/08/07 09:12:15;;;;;;;4.15;2.13;;;;;;;37.81;30.17;96865.78;5053069;28;20098;-71
2023/08/07 09:14:41;;;;;;;1.45;1.20;;;;;;;33.58;33.71;96872.56;5052898;28;20372;-70
2023/08/07 09:17:07;;;;;;;1.67;1.40;;;;;;;34.10;34.32;96868.31;5053165;28;20044;-71
2023/08/07 09:19:32;;;;;;;1.60;1.50;;;;;;;35.17;33.07;96870.19;5052668;28;20535;-72
2023/08/07 09:21:58;;;;;;;5.20;1.52;;;;;;;35.65;32.62;96861.63;5052779;28;20103;-72
2023/08/07 09:24:24;;;;;;;6.93;1.27;;;;;;;37.16;31.18;96866.78;5050710;28;20107;-72
2023/08/07 09:26:51;;;;;;;1.20;1.10;;;;;;;37.28;30.89;96867.31;5055529;28;20357;-72
2023/08/07 09:29:17;;;;;;;3.83;1.20;;;;;;;38.16;30.37;96855.63;5053964;28;20024;-73
2023/08/07 09:31:46;;;;;;;2.47;1.00;;;;;;;37.56;30.36;96863.09;5055137;28;20447;-71
2023/08/07 09:34:13;;;;;;;1.65;1.15;;;;;;;38.14;29.94;96852.28;5073128;28;20017;-71
2023/08/07 09:36:39;;;;;;;1.38;1.13;;;;;;;38.29;29.04;96849.41;5072790;28;20074;-71
2023/08/07 09:39:04;;;;;;;1.38;1.20;;;;;;;36.58;31.29;96861.72;5088483;28;20045;-71
2023/08/07 09:41:30;;;;;;;1.30;1.20;;;;;;;37.76;30.09;96865.81;5072857;28;20029;-71
2023/08/07 09:43:57;;;;;;;10.45;1.50;;;;;;;38.21;29.49;96866.78;5055107;28;20067;-70
2023/08/07 09:46:23;;;;;;;2.17;1.10;;;;;;;35.82;30.84;96865.03;5054908;28;20016;-71
2023/08/07 09:48:48;;;;;;;1.05;1.00;;;;;;;36.81;30.73;96877.91;5054931;28;20089;-71
2023/08/07 09:51:14;;;;;;;2.90;1.50;;;;;;;36.80;31.03;96882.63;5073080;28;20112;-71
2023/08/07 09:53:40;;;;;;;1.60;1.40;;;;;;;34.25;32.73;96881.50;5072528;28;20484;-70
2023/08/07 09:56:06;;;;;;;0.95;0.95;;;;;;;34.42;32.85;96860.03;5054888;28;20020;-71
2023/08/07 09:58:31;;;;;;;2.65;1.65;;;;;;;32.12;35.47;96859.84;5071121;28;20507;-70
2023/08/07 10:01:04;;;;;;;2.85;1.00;;;;;;;34.13;33.83;96861.38;5054672;28;20028;-71
2023/08/07 10:03:30;;;;;;;2.95;1.17;;;;;;;34.61;33.03;96844.66;5072414;28;20032;-71
2023/08/07 10:05:55;;;;;;;3.17;1.30;;;;;;;36.65;30.46;96846.38;5054728;28;20089;-71
2023/08/07 10:08:22;;;;;;;3.45;1.20;;;;;;;37.58;30.06;96843.25;5072476;28;20117;-73
2023/08/07 10:10:47;;;;;;;1.88;1.40;;;;;;;36.99;30.51;96845.84;5072551;28;20525;-71
2023/08/07 10:13:14;;;;;;;11.10;2.13;;;;;;;38.02;29.80;96838.66;5087609;28;20032;-71
2023/08/07 10:15:41;;;;;;;1.40;1.27;;;;;;;39.06;28.22;96831.00;5037479;28;20408;-71
2023/08/07 10:18:08;;;;;;;2.05;1.42;;;;;;;38.98;28.71;96833.28;5054568;28;20016;-71
2023/08/07 10:20:34;;;;;;;2.33;1.90;;;;;;;39.04;28.30;96846.09;5054088;28;20082;-71
2023/08/07 10:23:09;;;;;;;6.82;6.10;;;;;;;39.26;28.31;96842.00;5072234;28;20024;-71
2023/08/07 10:25:40;;;;;;;1.20;1.10;;;;;;;39.75;27.80;96830.63;5037297;28;20380;-71
2023/08/07 10:28:08;;;;;;;1.63;1.52;;;;;;;39.79;27.70;96832.50;5054235;28;20071;-72
2023/08/07 10:30:34;;;;;;;1.73;1.50;;;;;;;40.43;26.70;96831.09;5053774;28;20090;-72
2023/08/07 10:33:00;;;;;;;2.08;1.35;;;;;;;40.63;26.99;96836.44;5072093;28;20081;-72
2023/08/07 10:35:33;;;;;;;1.67;1.52;;;;;;;38.91;28.12;96824.41;5071882;28;20124;-71
2023/08/07 10:38:25;;;;;;;5.97;1.98;;;;;;;39.15;27.40;96826.44;5053931;28;20037;-71
2023/08/07 10:41:20;;;;;;;1.50;1.20;;;;;;;36.98;30.09;96835.78;5049943;28;20036;-71
2023/08/07 10:43:47;;;;;;;1.30;1.20;;;;;;;37.67;29.06;96830.38;5054023;28;20048;-71
2023/08/07 10:46:17;;;;;;;1.40;1.30;;;;;;;36.94;29.63;96833.56;5071650;28;20115;-71
2023/08/07 10:48:47;;;;;;;1.92;0.90;;;;;;;37.27;29.55;96834.94;5053230;28;20036;-71
2023/08/07 10:51:17;;;;;;;1.27;1.02;;;;;;;38.62;28.73;96826.28;5071592;28;20417;-71
2023/08/07 10:53:55;;;;;;;1.85;1.35;;;;;;;38.19;28.41;96821.50;5053484;28;20119;-71
2023/08/07 10:56:31;;;;;;;3.03;1.38;;;;;;;38.22;28.73;96832.13;5071631;28;20026;-71
2023/08/07 10:58:57;;;;;;;1.23;1.13;;;;;;;38.65;28.54;96828.50;5053679;28;20021;-71
2023/08/07 11:01:35;;;;;;;5.88;1.05;;;;;;;39.84;27.45;96826.00;5053055;28;20017;-72
2023/08/07 11:04:06;;;;;;;5.13;1.30;;;;;;;41.00;26.08;96822.41;5071359;28;20024;-71
2023/08/07 11:06:32;;;;;;;;;;;;;;;40.15;26.90;96818.88;5053633;28;20492;-71
2023/08/07 11:09:05;;;;;;;8.20;1.42;;;;;;;39.17;28.36;96807.34;5036648;28;19938;-71
2023/08/07 11:11:42;;;;;;;3.15;1.20;;;;;;;39.57;27.84;96812.56;5036860;28;20056;-71
2023/08/07 11:14:09;;;;;;;2.00;1.30;;;;;;;40.41;27.49;96808.13;5053256;28;20445;-72
2023/08/07 11:16:35;;;;;;;7.30;2.10;;;;;;;40.40;27.82;96812.06;5053049;28;20024;-72
2023/08/07 11:19:01;;;;;;;1.58;1.20;;;;;;;40.61;27.32;96807.03;5053205;28;20369;-71
2023/08/07 11:21:26;;;;;;;2.03;1.60;;;;;;;40.25;27.16;96803.88;5053107;28;20115;-72
2023/08/07 11:23:52;;;;;;;1.30;1.20;;;;;;;40.45;27.21;96804.44;5053098;28;20032;-71
2023/08/07 11:26:21;;;;;;;3.63;1.48;;;;;;;39.98;28.20;96805.34;5071035;28;20032;-72